Main page
METAR-TAF:

METAR-TAF

Airports :

Childress Municipal Airport

Childress, Texas, United States

latitude: 34-25-39N, longitude: 100-17-00W, elevation: 1952 ft

Current weather observation

The report was made 14 minutes ago, at 05:53 UTC
Wind 9 mph from the South/Southeast
Temperature 66°F
Humidity 83%
Pressure 29.87 in. Hg
Visibility: 10 miles
Clear sky

METAR: KCDS 250553Z AUTO 16008KT 10SM CLR 19/16 A2987 RMK AO2 SLP092 T01890161 10278 20189 403000172 50004

Time: 01:07 (06:07 UTC)

Forecast

The report was made 42 minutes ago, at 05:25 UTC
Forecast valid from 25 at 06 UTC to 26 at 06 UTC
Wind 9 mph from the South
Visibility: 6 miles
Clear sky
From 25 at 1800 UTC
Wind 21 mph from the North with gusts up to 29 mph
Visibility: 6 miles
Few clouds at a height of 25000 ft

TAF: KCDS 250525Z 2506/2606 18008KT P6SM SKC FM251800 36018G25KT P6SM FEW250

Weather observations and forecasts of more than 4000 airports (METAR and TAF reports).

The available stations are represented by yellow and red dots on the map.

Hover mouse over dot to see the name of the station.

Then click to see weather observations and forecasts.

To change the map : click on the green buttons with a black cross to zoom in, on the green button with a dash to zoom out, or on the green arrows for adjacent maps.


METAR-TAF: